LFSB/MLH METAR and TAF weather

Enter ICAO airport designator
Station Type Date Time Source
LFSB METAR 2022/01/23 11:30 UTC NOAA

LFSB 231130Z 00000KT 9999 FEW020 SCT030 05/M00 Q1034 NOSIG


Station Type Date Time Source
LFSB Decoded METAR 2022/01/23 11:30 UTC NOAA

Bale-Mulhouse, France (LFSB) 47-36N 007-31E 271M
Jan 23, 2022 - 06:30 AM EST / 2022.01.23 1130 UTC
Wind: Calm:0
Visibility: greater than 7 mile(s):0
Sky conditions: partly cloudy
Temperature: 41 F (5 C)
Dew Point: 32 F (0 C)
Relative Humidity: 70%
Pressure (altimeter): 30.53 in. Hg (1034 hPa)
ob: LFSB 231130Z 00000KT 9999 FEW020 SCT030 05/M00 Q1034 NOSIG
cycle: 11

Station Type Date Time Source
LFSB TAF 2022/01/23 12:21 UTC NOAA

TAF LFSB 231103Z 2312/2412 35004KT 9999 FEW020 SCT030
BECMG 2321/2324 3000 BR BKN004 PROB40
TEMPO 2323/2409 0400 FZFG VV///
BECMG 2409/2411 8000 NSW FEW010

Example: see airport list